sensor_id;sensor_type;location;lat;lon;timestamp;P1;durP1;ratioP1;P2;durP2;ratioP2
83247;SDS011;73465;51.038;7.052;2023-12-14T00:00:23;3.10;;;1.05;;
83247;SDS011;73465;51.038;7.052;2023-12-14T00:02:48;3.30;;;0.90;;
83247;SDS011;73465;51.038;7.052;2023-12-14T00:05:13;5.10;;;1.00;;
83247;SDS011;73465;51.038;7.052;2023-12-14T00:07:39;2.15;;;0.88;;
83247;SDS011;73465;51.038;7.052;2023-12-14T00:10:04;2.78;;;0.85;;
83247;SDS011;73465;51.038;7.052;2023-12-14T00:12:30;1.17;;;0.65;;
83247;SDS011;73465;51.038;7.052;2023-12-14T00:14:56;3.85;;;1.10;;
83247;SDS011;73465;51.038;7.052;2023-12-14T00:17:21;2.55;;;0.85;;
83247;SDS011;73465;51.038;7.052;2023-12-14T00:19:47;6.38;;;1.10;;
83247;SDS011;73465;51.038;7.052;2023-12-14T00:22:12;2.97;;;1.10;;
83247;SDS011;73465;51.038;7.052;2023-12-14T00:24:37;1.92;;;1.10;;
83247;SDS011;73465;51.038;7.052;2023-12-14T00:27:03;2.35;;;0.88;;
83247;SDS011;73465;51.038;7.052;2023-12-14T00:29:28;1.88;;;0.82;;
83247;SDS011;73465;51.038;7.052;2023-12-14T00:31:53;1.05;;;0.68;;
83247;SDS011;73465;51.038;7.052;2023-12-14T00:34:19;2.65;;;1.00;;
83247;SDS011;73465;51.038;7.052;2023-12-14T00:36:44;8.18;;;1.00;;
83247;SDS011;73465;51.038;7.052;2023-12-14T00:39:09;1.58;;;0.70;;
83247;SDS011;73465;51.038;7.052;2023-12-14T00:41:35;5.72;;;0.68;;
83247;SDS011;73465;51.038;7.052;2023-12-14T00:44:00;2.90;;;0.70;;
83247;SDS011;73465;51.038;7.052;2023-12-14T00:46:25;1.73;;;0.80;;
83247;SDS011;73465;51.038;7.052;2023-12-14T00:48:51;1.30;;;0.85;;
83247;SDS011;73465;51.038;7.052;2023-12-14T00:51:16;1.67;;;0.80;;
83247;SDS011;73465;51.038;7.052;2023-12-14T00:53:41;2.03;;;0.85;;
83247;SDS011;73465;51.038;7.052;2023-12-14T00:56:07;4.30;;;1.50;;
83247;SDS011;73465;51.038;7.052;2023-12-14T00:58:33;4.75;;;0.70;;
83247;SDS011;73465;51.038;7.052;2023-12-14T01:00:58;4.93;;;0.82;;
83247;SDS011;73465;51.038;7.052;2023-12-14T01:03:24;1.70;;;0.80;;
83247;SDS011;73465;51.038;7.052;2023-12-14T01:05:49;1.58;;;0.75;;
83247;SDS011;73465;51.038;7.052;2023-12-14T01:08:14;2.28;;;1.00;;
83247;SDS011;73465;51.038;7.052;2023-12-14T01:10:40;4.03;;;0.80;;
83247;SDS011;73465;51.038;7.052;2023-12-14T01:13:05;3.03;;;0.98;;
83247;SDS011;73465;51.038;7.052;2023-12-14T01:15:30;2.45;;;0.80;;
83247;SDS011;73465;51.038;7.052;2023-12-14T01:17:55;5.95;;;0.70;;
83247;SDS011;73465;51.038;7.052;2023-12-14T01:20:21;3.35;;;1.40;;
83247;SDS011;73465;51.038;7.052;2023-12-14T01:22:46;3.03;;;0.75;;
83247;SDS011;73465;51.038;7.052;2023-12-14T01:25:12;2.00;;;0.70;;
83247;SDS011;73465;51.038;7.052;2023-12-14T01:27:37;1.63;;;0.90;;
83247;SDS011;73465;51.038;7.052;2023-12-14T01:30:02;4.47;;;0.95;;
83247;SDS011;73465;51.038;7.052;2023-12-14T01:32:28;2.53;;;0.50;;
83247;SDS011;73465;51.038;7.052;2023-12-14T01:34:53;1.45;;;0.88;;
83247;SDS011;73465;51.038;7.052;2023-12-14T01:37:18;2.40;;;0.80;;
83247;SDS011;73465;51.038;7.052;2023-12-14T01:39:44;3.15;;;1.00;;
83247;SDS011;73465;51.038;7.052;2023-12-14T01:42:09;3.47;;;0.95;;
83247;SDS011;73465;51.038;7.052;2023-12-14T01:44:35;2.15;;;0.60;;
83247;SDS011;73465;51.038;7.052;2023-12-14T01:47:02;2.80;;;0.85;;
83247;SDS011;73465;51.038;7.052;2023-12-14T01:49:28;1.95;;;0.77;;
83247;SDS011;73465;51.038;7.052;2023-12-14T01:51:53;1.15;;;0.60;;
83247;SDS011;73465;51.038;7.052;2023-12-14T01:54:18;2.47;;;1.10;;
83247;SDS011;73465;51.038;7.052;2023-12-14T01:56:44;2.08;;;0.73;;
83247;SDS011;73465;51.038;7.052;2023-12-14T01:59:11;1.45;;;0.80;;
83247;SDS011;73465;51.038;7.052;2023-12-14T02:01:41;5.93;;;1.08;;
83247;SDS011;73465;51.038;7.052;2023-12-14T02:04:10;1.23;;;0.60;;
83247;SDS011;73465;51.038;7.052;2023-12-14T02:06:36;1.95;;;0.70;;
83247;SDS011;73465;51.038;7.052;2023-12-14T02:09:02;1.42;;;0.80;;
83247;SDS011;73465;51.038;7.052;2023-12-14T02:11:27;1.48;;;0.75;;
83247;SDS011;73465;51.038;7.052;2023-12-14T02:13:53;1.85;;;0.60;;
83247;SDS011;73465;51.038;7.052;2023-12-14T02:16:19;4.22;;;1.02;;
83247;SDS011;73465;51.038;7.052;2023-12-14T02:18:44;2.70;;;0.65;;
83247;SDS011;73465;51.038;7.052;2023-12-14T02:21:10;1.60;;;0.70;;
83247;SDS011;73465;51.038;7.052;2023-12-14T02:23:41;1.27;;;0.70;;
83247;SDS011;73465;51.038;7.052;2023-12-14T02:28:33;0.90;;;0.77;;
83247;SDS011;73465;51.038;7.052;2023-12-14T02:30:58;2.42;;;0.90;;
83247;SDS011;73465;51.038;7.052;2023-12-14T02:33:24;1.20;;;0.57;;
83247;SDS011;73465;51.038;7.052;2023-12-14T02:35:49;0.98;;;0.60;;
83247;SDS011;73465;51.038;7.052;2023-12-14T02:38:14;2.88;;;0.60;;
83247;SDS011;73465;51.038;7.052;2023-12-14T02:40:39;1.33;;;0.60;;
83247;SDS011;73465;51.038;7.052;2023-12-14T02:43:05;2.65;;;0.65;;
83247;SDS011;73465;51.038;7.052;2023-12-14T02:45:30;2.53;;;0.90;;
83247;SDS011;73465;51.038;7.052;2023-12-14T02:47:56;1.85;;;0.93;;
83247;SDS011;73465;51.038;7.052;2023-12-14T02:50:21;3.35;;;0.77;;
83247;SDS011;73465;51.038;7.052;2023-12-14T02:52:46;2.22;;;0.98;;
83247;SDS011;73465;51.038;7.052;2023-12-14T02:55:12;7.13;;;0.70;;
83247;SDS011;73465;51.038;7.052;2023-12-14T02:57:37;3.20;;;0.70;;
83247;SDS011;73465;51.038;7.052;2023-12-14T03:00:02;2.75;;;0.63;;
83247;SDS011;73465;51.038;7.052;2023-12-14T03:02:28;1.33;;;0.77;;
83247;SDS011;73465;51.038;7.052;2023-12-14T03:04:53;1.58;;;1.10;;
83247;SDS011;73465;51.038;7.052;2023-12-14T03:07:19;0.55;;;0.52;;
83247;SDS011;73465;51.038;7.052;2023-12-14T03:09:44;1.67;;;0.82;;
83247;SDS011;73465;51.038;7.052;2023-12-14T03:12:10;7.80;;;0.47;;
83247;SDS011;73465;51.038;7.052;2023-12-14T03:14:35;1.75;;;0.90;;
83247;SDS011;73465;51.038;7.052;2023-12-14T03:17:01;7.40;;;0.68;;
83247;SDS011;73465;51.038;7.052;2023-12-14T03:19:27;1.67;;;0.82;;
83247;SDS011;73465;51.038;7.052;2023-12-14T03:21:53;4.22;;;0.63;;
83247;SDS011;73465;51.038;7.052;2023-12-14T03:24:18;1.90;;;0.60;;
83247;SDS011;73465;51.038;7.052;2023-12-14T03:26:43;0.98;;;0.70;;
83247;SDS011;73465;51.038;7.052;2023-12-14T03:29:09;2.50;;;0.80;;
83247;SDS011;73465;51.038;7.052;2023-12-14T03:31:34;4.30;;;0.70;;
83247;SDS011;73465;51.038;7.052;2023-12-14T03:34:00;1.75;;;0.70;;
83247;SDS011;73465;51.038;7.052;2023-12-14T03:36:26;1.15;;;0.70;;
83247;SDS011;73465;51.038;7.052;2023-12-14T03:38:51;1.45;;;0.98;;
83247;SDS011;73465;51.038;7.052;2023-12-14T03:41:17;2.17;;;0.82;;
83247;SDS011;73465;51.038;7.052;2023-12-14T03:43:42;2.05;;;0.50;;
83247;SDS011;73465;51.038;7.052;2023-12-14T03:46:07;1.73;;;0.63;;
83247;SDS011;73465;51.038;7.052;2023-12-14T03:48:33;8.38;;;0.75;;
83247;SDS011;73465;51.038;7.052;2023-12-14T03:51:02;3.10;;;0.88;;
83247;SDS011;73465;51.038;7.052;2023-12-14T03:53:28;7.55;;;1.00;;
83247;SDS011;73465;51.038;7.052;2023-12-14T03:55:54;4.10;;;0.77;;
83247;SDS011;73465;51.038;7.052;2023-12-14T03:58:19;2.38;;;0.80;;
83247;SDS011;73465;51.038;7.052;2023-12-14T04:00:45;4.97;;;0.60;;
83247;SDS011;73465;51.038;7.052;2023-12-14T04:03:10;3.40;;;0.77;;
83247;SDS011;73465;51.038;7.052;2023-12-14T04:05:35;4.53;;;0.77;;
83247;SDS011;73465;51.038;7.052;2023-12-14T04:08:00;0.88;;;0.60;;
83247;SDS011;73465;51.038;7.052;2023-12-14T04:10:26;2.53;;;0.80;;
83247;SDS011;73465;51.038;7.052;2023-12-14T04:12:51;2.80;;;0.73;;
83247;SDS011;73465;51.038;7.052;2023-12-14T04:15:16;2.38;;;0.80;;
83247;SDS011;73465;51.038;7.052;2023-12-14T04:17:42;8.85;;;1.02;;
83247;SDS011;73465;51.038;7.052;2023-12-14T04:20:07;2.17;;;0.70;;
83247;SDS011;73465;51.038;7.052;2023-12-14T04:22:33;1.98;;;0.75;;
83247;SDS011;73465;51.038;7.052;2023-12-14T04:24:58;3.60;;;0.85;;
83247;SDS011;73465;51.038;7.052;2023-12-14T04:27:24;1.05;;;0.55;;
83247;SDS011;73465;51.038;7.052;2023-12-14T04:29:53;4.45;;;1.08;;
83247;SDS011;73465;51.038;7.052;2023-12-14T04:32:18;3.63;;;0.98;;
83247;SDS011;73465;51.038;7.052;2023-12-14T04:34:43;3.72;;;0.70;;
83247;SDS011;73465;51.038;7.052;2023-12-14T04:37:09;3.13;;;1.08;;
83247;SDS011;73465;51.038;7.052;2023-12-14T04:39:34;3.92;;;1.70;;
83247;SDS011;73465;51.038;7.052;2023-12-14T04:42:00;1.45;;;0.63;;
83247;SDS011;73465;51.038;7.052;2023-12-14T04:44:25;2.47;;;0.77;;
83247;SDS011;73465;51.038;7.052;2023-12-14T04:46:50;8.73;;;0.82;;
83247;SDS011;73465;51.038;7.052;2023-12-14T04:49:16;3.40;;;0.95;;
83247;SDS011;73465;51.038;7.052;2023-12-14T04:51:42;3.42;;;0.80;;
83247;SDS011;73465;51.038;7.052;2023-12-14T04:54:07;3.67;;;1.30;;
83247;SDS011;73465;51.038;7.052;2023-12-14T04:56:33;2.67;;;0.80;;
83247;SDS011;73465;51.038;7.052;2023-12-14T04:58:58;2.55;;;0.80;;
83247;SDS011;73465;51.038;7.052;2023-12-14T05:01:23;4.97;;;0.68;;
83247;SDS011;73465;51.038;7.052;2023-12-14T05:03:51;1.77;;;0.80;;
83247;SDS011;73465;51.038;7.052;2023-12-14T05:06:17;2.72;;;0.60;;
83247;SDS011;73465;51.038;7.052;2023-12-14T05:08:42;6.47;;;1.00;;
83247;SDS011;73465;51.038;7.052;2023-12-14T05:11:07;1.65;;;0.70;;
83247;SDS011;73465;51.038;7.052;2023-12-14T05:13:33;8.75;;;0.90;;
83247;SDS011;73465;51.038;7.052;2023-12-14T05:15:58;4.00;;;1.17;;
83247;SDS011;73465;51.038;7.052;2023-12-14T05:18:24;3.28;;;1.00;;
83247;SDS011;73465;51.038;7.052;2023-12-14T05:20:50;4.30;;;0.82;;
83247;SDS011;73465;51.038;7.052;2023-12-14T05:23:15;2.92;;;0.90;;
83247;SDS011;73465;51.038;7.052;2023-12-14T05:25:41;4.65;;;0.93;;
83247;SDS011;73465;51.038;7.052;2023-12-14T05:28:06;1.67;;;0.80;;
83247;SDS011;73465;51.038;7.052;2023-12-14T05:30:31;1.73;;;0.70;;
83247;SDS011;73465;51.038;7.052;2023-12-14T05:32:57;1.20;;;0.47;;
83247;SDS011;73465;51.038;7.052;2023-12-14T05:35:22;3.03;;;0.80;;
83247;SDS011;73465;51.038;7.052;2023-12-14T05:37:47;1.58;;;0.80;;
83247;SDS011;73465;51.038;7.052;2023-12-14T05:40:13;1.85;;;0.75;;
83247;SDS011;73465;51.038;7.052;2023-12-14T05:42:38;4.70;;;0.82;;
83247;SDS011;73465;51.038;7.052;2023-12-14T05:45:04;6.90;;;1.00;;
83247;SDS011;73465;51.038;7.052;2023-12-14T05:47:31;2.80;;;0.82;;
83247;SDS011;73465;51.038;7.052;2023-12-14T05:49:58;18.08;;;1.55;;
83247;SDS011;73465;51.038;7.052;2023-12-14T05:52:24;13.55;;;0.98;;
83247;SDS011;73465;51.038;7.052;2023-12-14T05:54:49;13.15;;;1.38;;
83247;SDS011;73465;51.038;7.052;2023-12-14T05:57:14;10.00;;;1.20;;
83247;SDS011;73465;51.038;7.052;2023-12-14T05:59:40;5.53;;;0.90;;
83247;SDS011;73465;51.038;7.052;2023-12-14T06:02:05;1.83;;;0.70;;
83247;SDS011;73465;51.038;7.052;2023-12-14T06:04:31;2.13;;;1.00;;
83247;SDS011;73465;51.038;7.052;2023-12-14T06:06:57;4.47;;;1.38;;
83247;SDS011;73465;51.038;7.052;2023-12-14T06:09:22;3.92;;;1.58;;
83247;SDS011;73465;51.038;7.052;2023-12-14T06:11:51;14.70;;;4.95;;
83247;SDS011;73465;51.038;7.052;2023-12-14T06:14:17;23.25;;;13.52;;
83247;SDS011;73465;51.038;7.052;2023-12-14T06:16:42;13.48;;;8.70;;
83247;SDS011;73465;51.038;7.052;2023-12-14T06:19:08;15.40;;;8.23;;
83247;SDS011;73465;51.038;7.052;2023-12-14T06:21:33;13.80;;;8.65;;
83247;SDS011;73465;51.038;7.052;2023-12-14T06:23:58;17.00;;;8.65;;
83247;SDS011;73465;51.038;7.052;2023-12-14T06:26:24;12.32;;;7.25;;
83247;SDS011;73465;51.038;7.052;2023-12-14T06:28:50;9.55;;;5.82;;
83247;SDS011;73465;51.038;7.052;2023-12-14T06:31:16;8.48;;;4.90;;
83247;SDS011;73465;51.038;7.052;2023-12-14T06:33:43;11.15;;;5.72;;
83247;SDS011;73465;51.038;7.052;2023-12-14T06:36:08;13.38;;;5.15;;
83247;SDS011;73465;51.038;7.052;2023-12-14T06:38:34;9.20;;;4.25;;
83247;SDS011;73465;51.038;7.052;2023-12-14T06:41:00;7.90;;;3.95;;
83247;SDS011;73465;51.038;7.052;2023-12-14T06:43:27;7.07;;;3.60;;
83247;SDS011;73465;51.038;7.052;2023-12-14T06:45:52;9.23;;;3.20;;
83247;SDS011;73465;51.038;7.052;2023-12-14T06:48:17;7.03;;;3.40;;
83247;SDS011;73465;51.038;7.052;2023-12-14T06:50:43;6.22;;;3.33;;
83247;SDS011;73465;51.038;7.052;2023-12-14T06:53:08;5.22;;;3.17;;
83247;SDS011;73465;51.038;7.052;2023-12-14T06:55:33;6.75;;;2.75;;
83247;SDS011;73465;51.038;7.052;2023-12-14T06:57:59;3.97;;;2.45;;
83247;SDS011;73465;51.038;7.052;2023-12-14T07:00:24;5.25;;;2.70;;
83247;SDS011;73465;51.038;7.052;2023-12-14T07:02:49;3.95;;;2.40;;
83247;SDS011;73465;51.038;7.052;2023-12-14T07:05:15;8.85;;;2.55;;
83247;SDS011;73465;51.038;7.052;2023-12-14T07:07:41;3.28;;;2.35;;
83247;SDS011;73465;51.038;7.052;2023-12-14T07:10:06;6.00;;;2.72;;
83247;SDS011;73465;51.038;7.052;2023-12-14T07:12:32;4.47;;;2.13;;
83247;SDS011;73465;51.038;7.052;2023-12-14T07:14:57;4.15;;;2.30;;
83247;SDS011;73465;51.038;7.052;2023-12-14T07:17:23;5.40;;;2.78;;
83247;SDS011;73465;51.038;7.052;2023-12-14T07:19:49;3.92;;;2.55;;
83247;SDS011;73465;51.038;7.052;2023-12-14T07:22:15;3.42;;;2.17;;
83247;SDS011;73465;51.038;7.052;2023-12-14T07:24:40;3.97;;;1.85;;
83247;SDS011;73465;51.038;7.052;2023-12-14T07:27:05;4.72;;;2.20;;
83247;SDS011;73465;51.038;7.052;2023-12-14T07:29:30;4.93;;;2.60;;
83247;SDS011;73465;51.038;7.052;2023-12-14T07:31:56;5.60;;;2.13;;
83247;SDS011;73465;51.038;7.052;2023-12-14T07:34:21;3.42;;;2.40;;
83247;SDS011;73465;51.038;7.052;2023-12-14T07:36:46;3.28;;;2.28;;
83247;SDS011;73465;51.038;7.052;2023-12-14T07:39:12;4.43;;;2.40;;
83247;SDS011;73465;51.038;7.052;2023-12-14T07:41:37;4.07;;;2.20;;
83247;SDS011;73465;51.038;7.052;2023-12-14T07:44:02;3.47;;;2.33;;
83247;SDS011;73465;51.038;7.052;2023-12-14T07:46:29;4.68;;;2.67;;
83247;SDS011;73465;51.038;7.052;2023-12-14T07:48:54;6.63;;;2.30;;
83247;SDS011;73465;51.038;7.052;2023-12-14T07:51:20;4.53;;;2.38;;
83247;SDS011;73465;51.038;7.052;2023-12-14T07:53:45;6.35;;;2.25;;
83247;SDS011;73465;51.038;7.052;2023-12-14T07:56:11;5.90;;;1.92;;
83247;SDS011;73465;51.038;7.052;2023-12-14T07:58:37;6.90;;;2.20;;
83247;SDS011;73465;51.038;7.052;2023-12-14T08:01:02;2.20;;;1.80;;
83247;SDS011;73465;51.038;7.052;2023-12-14T08:03:28;3.67;;;2.28;;
83247;SDS011;73465;51.038;7.052;2023-12-14T08:05:53;4.72;;;2.10;;
83247;SDS011;73465;51.038;7.052;2023-12-14T08:08:18;4.00;;;2.00;;
83247;SDS011;73465;51.038;7.052;2023-12-14T08:10:44;3.08;;;1.98;;
83247;SDS011;73465;51.038;7.052;2023-12-14T08:13:09;2.67;;;1.88;;
83247;SDS011;73465;51.038;7.052;2023-12-14T08:15:34;3.35;;;2.03;;
83247;SDS011;73465;51.038;7.052;2023-12-14T08:17:59;2.70;;;1.67;;
83247;SDS011;73465;51.038;7.052;2023-12-14T08:20:25;5.00;;;2.08;;
83247;SDS011;73465;51.038;7.052;2023-12-14T08:22:50;3.97;;;1.92;;
83247;SDS011;73465;51.038;7.052;2023-12-14T08:25:15;3.22;;;2.17;;
83247;SDS011;73465;51.038;7.052;2023-12-14T08:27:41;2.33;;;1.75;;
83247;SDS011;73465;51.038;7.052;2023-12-14T08:30:07;3.60;;;2.03;;
83247;SDS011;73465;51.038;7.052;2023-12-14T08:32:33;4.55;;;1.98;;
83247;SDS011;73465;51.038;7.052;2023-12-14T08:34:59;2.97;;;1.98;;
83247;SDS011;73465;51.038;7.052;2023-12-14T08:37:24;3.28;;;2.00;;
83247;SDS011;73465;51.038;7.052;2023-12-14T08:39:49;4.13;;;1.77;;
83247;SDS011;73465;51.038;7.052;2023-12-14T08:42:15;3.08;;;1.70;;
83247;SDS011;73465;51.038;7.052;2023-12-14T08:44:40;3.25;;;2.00;;
83247;SDS011;73465;51.038;7.052;2023-12-14T08:47:06;2.50;;;1.50;;
83247;SDS011;73465;51.038;7.052;2023-12-14T08:49:33;3.15;;;1.80;;
83247;SDS011;73465;51.038;7.052;2023-12-14T08:51:59;2.78;;;1.60;;
83247;SDS011;73465;51.038;7.052;2023-12-14T08:54:24;2.70;;;1.90;;
83247;SDS011;73465;51.038;7.052;2023-12-14T08:56:49;3.38;;;1.80;;
83247;SDS011;73465;51.038;7.052;2023-12-14T08:59:15;3.75;;;1.88;;
83247;SDS011;73465;51.038;7.052;2023-12-14T09:01:40;3.25;;;1.80;;
83247;SDS011;73465;51.038;7.052;2023-12-14T09:04:05;4.03;;;1.90;;
83247;SDS011;73465;51.038;7.052;2023-12-14T09:06:31;2.50;;;1.88;;
83247;SDS011;73465;51.038;7.052;2023-12-14T09:08:56;2.53;;;1.52;;
83247;SDS011;73465;51.038;7.052;2023-12-14T09:11:21;3.17;;;1.90;;
83247;SDS011;73465;51.038;7.052;2023-12-14T09:13:47;3.60;;;2.00;;
83247;SDS011;73465;51.038;7.052;2023-12-14T09:16:12;17.58;;;7.82;;
83247;SDS011;73465;51.038;7.052;2023-12-14T09:18:38;15.65;;;8.40;;
83247;SDS011;73465;51.038;7.052;2023-12-14T09:21:03;11.73;;;7.10;;
83247;SDS011;73465;51.038;7.052;2023-12-14T09:23:29;13.57;;;6.25;;
83247;SDS011;73465;51.038;7.052;2023-12-14T09:25:55;12.02;;;5.43;;
83247;SDS011;73465;51.038;7.052;2023-12-14T09:28:21;10.63;;;5.28;;
83247;SDS011;73465;51.038;7.052;2023-12-14T09:30:46;8.25;;;4.78;;
83247;SDS011;73465;51.038;7.052;2023-12-14T09:33:12;10.02;;;5.45;;
83247;SDS011;73465;51.038;7.052;2023-12-14T09:35:37;12.07;;;4.80;;
83247;SDS011;73465;51.038;7.052;2023-12-14T09:38:03;7.30;;;4.43;;
83247;SDS011;73465;51.038;7.052;2023-12-14T09:40:29;7.72;;;4.28;;
83247;SDS011;73465;51.038;7.052;2023-12-14T09:42:55;5.90;;;4.47;;
83247;SDS011;73465;51.038;7.052;2023-12-14T09:45:20;7.10;;;3.78;;
83247;SDS011;73465;51.038;7.052;2023-12-14T09:47:51;6.43;;;4.03;;
83247;SDS011;73465;51.038;7.052;2023-12-14T09:50:18;8.10;;;3.70;;
83247;SDS011;73465;51.038;7.052;2023-12-14T09:52:45;7.57;;;3.45;;
83247;SDS011;73465;51.038;7.052;2023-12-14T09:55:12;7.13;;;3.40;;
83247;SDS011;73465;51.038;7.052;2023-12-14T09:57:38;8.15;;;3.83;;
83247;SDS011;73465;51.038;7.052;2023-12-14T10:00:03;8.52;;;4.05;;
83247;SDS011;73465;51.038;7.052;2023-12-14T10:02:32;6.63;;;3.38;;
83247;SDS011;73465;51.038;7.052;2023-12-14T10:04:58;6.10;;;3.38;;
83247;SDS011;73465;51.038;7.052;2023-12-14T10:07:23;6.78;;;3.33;;
83247;SDS011;73465;51.038;7.052;2023-12-14T10:09:48;6.30;;;3.42;;
83247;SDS011;73465;51.038;7.052;2023-12-14T10:12:15;6.03;;;3.47;;
83247;SDS011;73465;51.038;7.052;2023-12-14T10:14:40;5.03;;;3.20;;
83247;SDS011;73465;51.038;7.052;2023-12-14T10:19:42;5.45;;;2.97;;
83247;SDS011;73465;51.038;7.052;2023-12-14T10:22:09;7.03;;;2.90;;
83247;SDS011;73465;51.038;7.052;2023-12-14T10:24:35;5.65;;;2.92;;
83247;SDS011;73465;51.038;7.052;2023-12-14T10:27:04;7.80;;;3.03;;
83247;SDS011;73465;51.038;7.052;2023-12-14T10:29:32;5.28;;;2.78;;
83247;SDS011;73465;51.038;7.052;2023-12-14T10:31:59;5.63;;;3.13;;
83247;SDS011;73465;51.038;7.052;2023-12-14T10:34:24;6.03;;;3.13;;
83247;SDS011;73465;51.038;7.052;2023-12-14T10:36:50;6.20;;;3.10;;
83247;SDS011;73465;51.038;7.052;2023-12-14T10:39:16;5.55;;;3.05;;
83247;SDS011;73465;51.038;7.052;2023-12-14T10:41:45;5.85;;;2.90;;
83247;SDS011;73465;51.038;7.052;2023-12-14T10:44:13;13.77;;;3.05;;
83247;SDS011;73465;51.038;7.052;2023-12-14T10:46:39;5.18;;;3.10;;
83247;SDS011;73465;51.038;7.052;2023-12-14T10:49:05;11.15;;;3.00;;
83247;SDS011;73465;51.038;7.052;2023-12-14T10:51:31;5.82;;;3.22;;
83247;SDS011;73465;51.038;7.052;2023-12-14T10:53:58;4.38;;;2.67;;
83247;SDS011;73465;51.038;7.052;2023-12-14T10:56:23;6.78;;;3.10;;
83247;SDS011;73465;51.038;7.052;2023-12-14T11:01:19;5.28;;;3.20;;
83247;SDS011;73465;51.038;7.052;2023-12-14T11:03:45;5.75;;;2.92;;
83247;SDS011;73465;51.038;7.052;2023-12-14T11:06:26;5.18;;;3.13;;
83247;SDS011;73465;51.038;7.052;2023-12-14T11:09:04;6.13;;;2.40;;
83247;SDS011;73465;51.038;7.052;2023-12-14T11:11:41;6.00;;;3.13;;
83247;SDS011;73465;51.038;7.052;2023-12-14T11:14:08;10.35;;;3.47;;
83247;SDS011;73465;51.038;7.052;2023-12-14T11:16:36;20.73;;;12.55;;
83247;SDS011;73465;51.038;7.052;2023-12-14T11:21:48;17.17;;;9.50;;
83247;SDS011;73465;51.038;7.052;2023-12-14T11:24:37;14.77;;;8.43;;
83247;SDS011;73465;51.038;7.052;2023-12-14T11:27:08;16.23;;;7.88;;
83247;SDS011;73465;51.038;7.052;2023-12-14T11:29:36;15.32;;;6.57;;
83247;SDS011;73465;51.038;7.052;2023-12-14T11:32:02;14.57;;;6.15;;
83247;SDS011;73465;51.038;7.052;2023-12-14T11:34:28;10.50;;;6.07;;
83247;SDS011;73465;51.038;7.052;2023-12-14T11:36:57;9.80;;;6.35;;
83247;SDS011;73465;51.038;7.052;2023-12-14T11:39:23;10.50;;;5.65;;
83247;SDS011;73465;51.038;7.052;2023-12-14T11:42:04;10.35;;;4.65;;
83247;SDS011;73465;51.038;7.052;2023-12-14T11:44:33;9.55;;;5.13;;
83247;SDS011;73465;51.038;7.052;2023-12-14T11:46:58;7.78;;;4.75;;
83247;SDS011;73465;51.038;7.052;2023-12-14T11:49:24;8.80;;;5.05;;
83247;SDS011;73465;51.038;7.052;2023-12-14T11:51:56;7.97;;;5.32;;
83247;SDS011;73465;51.038;7.052;2023-12-14T11:54:21;12.25;;;5.28;;
83247;SDS011;73465;51.038;7.052;2023-12-14T11:56:50;13.23;;;5.60;;
83247;SDS011;73465;51.038;7.052;2023-12-14T11:59:15;10.27;;;4.70;;
83247;SDS011;73465;51.038;7.052;2023-12-14T12:04:50;6.13;;;4.20;;
83247;SDS011;73465;51.038;7.052;2023-12-14T12:07:16;7.10;;;4.20;;
83247;SDS011;73465;51.038;7.052;2023-12-14T12:09:42;8.25;;;4.90;;
83247;SDS011;73465;51.038;7.052;2023-12-14T12:12:09;7.85;;;4.22;;
83247;SDS011;73465;51.038;7.052;2023-12-14T12:14:35;6.28;;;4.15;;
83247;SDS011;73465;51.038;7.052;2023-12-14T12:17:01;5.55;;;3.65;;
83247;SDS011;73465;51.038;7.052;2023-12-14T12:19:26;5.97;;;4.07;;
83247;SDS011;73465;51.038;7.052;2023-12-14T12:21:52;44.25;;;6.72;;
83247;SDS011;73465;51.038;7.052;2023-12-14T12:24:17;27.25;;;4.53;;
83247;SDS011;73465;51.038;7.052;2023-12-14T12:26:42;8.77;;;4.05;;
83247;SDS011;73465;51.038;7.052;2023-12-14T12:29:08;8.23;;;4.38;;
83247;SDS011;73465;51.038;7.052;2023-12-14T12:31:33;13.48;;;4.40;;
83247;SDS011;73465;51.038;7.052;2023-12-14T12:33:59;14.98;;;4.47;;
83247;SDS011;73465;51.038;7.052;2023-12-14T12:36:24;11.45;;;3.95;;
83247;SDS011;73465;51.038;7.052;2023-12-14T12:38:50;9.38;;;3.88;;
83247;SDS011;73465;51.038;7.052;2023-12-14T12:41:16;11.30;;;4.10;;
83247;SDS011;73465;51.038;7.052;2023-12-14T12:43:41;6.80;;;4.10;;
83247;SDS011;73465;51.038;7.052;2023-12-14T12:46:06;10.38;;;4.20;;
83247;SDS011;73465;51.038;7.052;2023-12-14T12:48:32;9.73;;;4.05;;
83247;SDS011;73465;51.038;7.052;2023-12-14T12:50:57;7.45;;;3.88;;
83247;SDS011;73465;51.038;7.052;2023-12-14T12:53:23;9.25;;;3.50;;
83247;SDS011;73465;51.038;7.052;2023-12-14T12:55:48;5.80;;;3.35;;
83247;SDS011;73465;51.038;7.052;2023-12-14T12:58:13;8.00;;;3.63;;
83247;SDS011;73465;51.038;7.052;2023-12-14T13:00:39;8.63;;;3.38;;
83247;SDS011;73465;51.038;7.052;2023-12-14T13:03:05;6.53;;;3.70;;
83247;SDS011;73465;51.038;7.052;2023-12-14T13:05:30;10.63;;;3.50;;
83247;SDS011;73465;51.038;7.052;2023-12-14T13:07:55;8.73;;;3.30;;
83247;SDS011;73465;51.038;7.052;2023-12-14T13:10:22;11.43;;;4.00;;
83247;SDS011;73465;51.038;7.052;2023-12-14T13:12:51;20.30;;;3.85;;
83247;SDS011;73465;51.038;7.052;2023-12-14T13:15:17;10.13;;;3.63;;
83247;SDS011;73465;51.038;7.052;2023-12-14T13:17:43;10.85;;;3.17;;
83247;SDS011;73465;51.038;7.052;2023-12-14T13:20:09;9.80;;;3.20;;
83247;SDS011;73465;51.038;7.052;2023-12-14T13:22:34;6.22;;;3.05;;
83247;SDS011;73465;51.038;7.052;2023-12-14T13:25:00;7.70;;;3.33;;
83247;SDS011;73465;51.038;7.052;2023-12-14T13:27:25;5.25;;;2.90;;
83247;SDS011;73465;51.038;7.052;2023-12-14T13:29:51;7.55;;;3.67;;
83247;SDS011;73465;51.038;7.052;2023-12-14T13:32:16;5.57;;;3.35;;
83247;SDS011;73465;51.038;7.052;2023-12-14T13:34:41;4.38;;;3.13;;
83247;SDS011;73465;51.038;7.052;2023-12-14T13:37:07;6.65;;;3.13;;
83247;SDS011;73465;51.038;7.052;2023-12-14T13:39:34;6.70;;;3.63;;
83247;SDS011;73465;51.038;7.052;2023-12-14T13:42:03;7.93;;;2.78;;
83247;SDS011;73465;51.038;7.052;2023-12-14T13:44:32;7.95;;;3.30;;
83247;SDS011;73465;51.038;7.052;2023-12-14T13:46:59;9.38;;;2.90;;
83247;SDS011;73465;51.038;7.052;2023-12-14T13:49:25;6.55;;;3.10;;
83247;SDS011;73465;51.038;7.052;2023-12-14T13:51:51;6.40;;;3.50;;
83247;SDS011;73465;51.038;7.052;2023-12-14T13:54:16;8.65;;;3.13;;
83247;SDS011;73465;51.038;7.052;2023-12-14T13:56:41;7.07;;;3.22;;
83247;SDS011;73465;51.038;7.052;2023-12-14T13:59:06;5.88;;;2.78;;
83247;SDS011;73465;51.038;7.052;2023-12-14T14:01:32;8.30;;;3.22;;
83247;SDS011;73465;51.038;7.052;2023-12-14T14:03:57;7.13;;;2.85;;
83247;SDS011;73465;51.038;7.052;2023-12-14T14:06:22;7.22;;;3.33;;
83247;SDS011;73465;51.038;7.052;2023-12-14T14:08:48;13.05;;;3.15;;
83247;SDS011;73465;51.038;7.052;2023-12-14T14:11:13;6.25;;;2.50;;
83247;SDS011;73465;51.038;7.052;2023-12-14T14:13:39;6.57;;;2.78;;
83247;SDS011;73465;51.038;7.052;2023-12-14T14:16:05;6.28;;;2.78;;
83247;SDS011;73465;51.038;7.052;2023-12-14T14:18:32;12.45;;;5.13;;
83247;SDS011;73465;51.038;7.052;2023-12-14T14:20:57;11.82;;;4.78;;
83247;SDS011;73465;51.038;7.052;2023-12-14T14:23:23;5.65;;;3.85;;
83247;SDS011;73465;51.038;7.052;2023-12-14T14:25:50;6.95;;;3.15;;
83247;SDS011;73465;51.038;7.052;2023-12-14T14:28:19;2.88;;;2.10;;
83247;SDS011;73465;51.038;7.052;2023-12-14T14:30:45;5.90;;;2.20;;
83247;SDS011;73465;51.038;7.052;2023-12-14T14:33:11;3.88;;;1.67;;
83247;SDS011;73465;51.038;7.052;2023-12-14T14:35:38;1.63;;;1.30;;
83247;SDS011;73465;51.038;7.052;2023-12-14T14:38:04;1.63;;;1.13;;
83247;SDS011;73465;51.038;7.052;2023-12-14T14:40:29;1.35;;;1.05;;
83247;SDS011;73465;51.038;7.052;2023-12-14T14:42:54;3.35;;;1.20;;
83247;SDS011;73465;51.038;7.052;2023-12-14T14:45:19;1.60;;;0.93;;
83247;SDS011;73465;51.038;7.052;2023-12-14T14:47:45;3.75;;;1.00;;
83247;SDS011;73465;51.038;7.052;2023-12-14T14:50:10;2.00;;;1.15;;